Discovery — 3FII9 — position and weather

sailwx.info

Track history (hours):
 
Tides and Currents Weather Stations Pressure Air Temp Water Temp Dewpoint Dewpoint Depression Visibility Wind Speed Wind Dir Waves Ship Positions

Discovery

Operator: V Ships Leisure SAM

Last reported at 2018-Dec-12 00:27 UTC. Time now 2018-Dec-12 15:21 UTC.
Position N 53°26' E 003°11'.

Length 177 m; draft 10.2 m.

Type: Cargo ship. MMSI: 353389000.

Date/timePositionNaut miles runAvg speedWind from/ knotsBaromVisibWave heightAir tempDewpointWater temp
2018-Dec-12 00:27N 53°26' E 003°11'1 0.5
2018-Dec-11 22:33N 53°26' E 003°12'6 3.8
2018-Dec-11 20:55N 53°21' E 003°18'29 1.4
2018-Dec-11 00:11N 52°52' E 003°20'1 1.1
2018-Dec-10 23:05N 52°51' E 003°21'0 1.2
2018-Dec-10 22:50N 52°51' E 003°21'1 1.4
2018-Dec-10 22:06N 52°50' E 003°23'0 1.2
2018-Dec-10 21:43N 52°50' E 003°23'0 0.9
2018-Dec-10 21:24N 52°50' E 003°23'1 0.9
2018-Dec-10 20:44N 52°49' E 003°24'  
2018-Dec-08 15:38N 52°21' E 003°09'8 8.6
2018-Dec-08 14:45N 52°16' E 003°18'4 8.2
2018-Dec-08 14:15N 52°13' E 003°23'2 7.8
2018-Dec-08 13:59N 52°12' E 003°25'3 6.3
2018-Dec-08 13:30N 52°10' E 003°29'3 5.8
2018-Dec-08 12:59N 52°08' E 003°33'3 5.8
2018-Dec-08 12:29N 52°07' E 003°37'3 5.3
2018-Dec-08 12:00N 52°06' E 003°41'3 5.8
2018-Dec-08 11:30N 52°05' E 003°45'3 5.9
2018-Dec-08 11:00N 52°04' E 003°50'3 5.2
2018-Dec-08 10:30N 52°04' E 003°54'1 2.9
2018-Dec-08 10:00N 52°03' E 003°56'2 3.6
2018-Dec-08 09:30N 52°02' E 003°58'4 8.4
2018-Dec-08 09:00N 51°59' E 004°04'5 9.6
2018-Dec-08 08:30N 51°57' E 004°11'510.0
2018-Dec-08 08:00N 51°54' E 004°17'1 1.9
2018-Dec-08 07:30N 51°53' E 004°17'0 0.3
2018-Dec-08 06:49N 51°53' E 004°17'0 0.0
2018-Dec-08 06:28N 51°53' E 004°17'0 0.0
2018-Dec-08 05:52N 51°53' E 004°17'0 0.0
2018-Dec-08 05:28N 51°53' E 004°17'0 0.0
2018-Dec-08 04:55N 51°53' E 004°17'0 0.0
2018-Dec-08 04:25N 51°53' E 004°17'0 0.0
2018-Dec-08 03:57N 51°53' E 004°17'0 0.0
2018-Dec-08 03:27N 51°53' E 004°17'0 0.0
2018-Dec-08 02:54N 51°53' E 004°17'0 0.0
2018-Dec-08 02:30N 51°53' E 004°17'0 0.0
2018-Dec-08 02:00N 51°53' E 004°17'0 0.0
2018-Dec-08 01:30N 51°53' E 004°17'0 0.0
2018-Dec-08 00:33N 51°53' E 004°17'0 0.0
2018-Dec-08 00:12N 51°53' E 004°17'0 0.0
2018-Dec-07 23:57N 51°53' E 004°17'0 0.0
2018-Dec-07 23:30N 51°53' E 004°17'0 0.0
2018-Dec-07 23:00N 51°53' E 004°17'0 0.0
2018-Dec-07 22:24N 51°53' E 004°17'0 0.0
2018-Dec-07 21:51N 51°53' E 004°17'0 0.0
2018-Dec-07 21:30N 51°53' E 004°17'0 0.0
2018-Dec-07 21:00N 51°53' E 004°17'0 0.0
2018-Dec-07 20:24N 51°53' E 004°17'0 0.0
2018-Dec-07 19:45N 51°53' E 004°17'0 0.0
2018-Dec-07 19:24N 51°53' E 004°17'0 0.0
2018-Dec-07 18:45N 51°53' E 004°17'0 0.0
2018-Dec-07 18:21N 51°53' E 004°17'0 0.0
2018-Dec-07 17:54N 51°53' E 004°17'0 0.0
2018-Dec-07 17:27N 51°53' E 004°17'0 0.0
2018-Dec-07 17:00N 51°53' E 004°17'0 0.0
2018-Dec-07 16:30N 51°53' E 004°17'0 0.0
2018-Dec-07 16:00N 51°53' E 004°17'0 0.0
2018-Dec-07 15:30N 51°53' E 004°17'0 0.0
2018-Dec-07 14:48N 51°53' E 004°17'0 0.0
2018-Dec-07 14:21N 51°53' E 004°17'0 0.0
2018-Dec-07 13:42N 51°53' E 004°17'0 0.0
2018-Dec-07 13:18N 51°53' E 004°17'0 0.0
2018-Dec-07 13:00N 51°53' E 004°17'0 0.0
2018-Dec-07 12:17N 51°53' E 004°17'0 0.0
2018-Dec-07 11:38N 51°53' E 004°17'0 0.0
2018-Dec-07 11:20N 51°53' E 004°17'0 0.0
2018-Dec-07 10:56N 51°53' E 004°17'0 0.0
2018-Dec-07 10:17N 51°53' E 004°17'0 0.0
2018-Dec-07 09:41N 51°53' E 004°17'0 0.0
2018-Dec-07 09:29N 51°53' E 004°17'0 0.0
2018-Dec-07 08:41N 51°53' E 004°17'0 0.0
2018-Dec-07 07:47N 51°53' E 004°17'0 0.0
2018-Dec-07 07:29N 51°53' E 004°17'0 0.0
2018-Dec-07 06:29N 51°53' E 004°17'0 0.0
2018-Dec-07 05:56N 51°53' E 004°17'0 0.0
2018-Dec-07 05:14N 51°53' E 004°17'0 0.0
2018-Dec-07 04:59N 51°53' E 004°17'0 0.0
2018-Dec-07 04:23N 51°53' E 004°17'0 0.0
2018-Dec-07 03:50N 51°53' E 004°17'0 0.0
2018-Dec-07 03:17N 51°53' E 004°17'0 0.0
2018-Dec-07 02:29N 51°53' E 004°17'0 0.0
2018-Dec-07 01:47N 51°53' E 004°17'0 0.0
2018-Dec-07 01:20N 51°53' E 004°17'0 0.0
2018-Dec-07 00:59N 51°53' E 004°17'0 0.0
2018-Dec-07 00:26N 51°53' E 004°17'0 0.0
2018-Dec-06 23:56N 51°53' E 004°17'0 0.0
2018-Dec-06 23:29N 51°53' E 004°17'0 0.0
2018-Dec-06 22:56N 51°53' E 004°17'0 0.0
2018-Dec-06 22:29N 51°53' E 004°17'0 0.0
2018-Dec-06 21:50N 51°53' E 004°17'0 0.0
2018-Dec-06 21:29N 51°53' E 004°17'0 0.0
2018-Dec-06 20:59N 51°53' E 004°17'0 0.0
2018-Dec-06 20:23N 51°53' E 004°17'0 0.0
2018-Dec-06 19:59N 51°53' E 004°17'0 0.0
2018-Dec-06 19:11N 51°53' E 004°17'0 0.0
2018-Dec-06 18:59N 51°53' E 004°17'0 0.0
2018-Dec-06 18:08N 51°53' E 004°17'0 0.0
2018-Dec-06 17:50N 51°53' E 004°17'0 0.0
2018-Dec-06 17:29N 51°53' E 004°17'0 0.0
2018-Dec-06 16:59N 51°53' E 004°17'0 0.0
2018-Dec-06 16:26N 51°53' E 004°17'0 0.0
2018-Dec-06 15:44N 51°53' E 004°17'0 0.0
2018-Dec-06 15:29N 51°53' E 004°17'0 0.0
2018-Dec-06 14:17N 51°53' E 004°17'0 0.0
2018-Dec-06 13:59N 51°53' E 004°17'0 0.0
2018-Dec-06 13:23N 51°53' E 004°17'0 0.0
2018-Dec-06 12:59N 51°53' E 004°17'0 0.0
2018-Dec-06 12:20N 51°53' E 004°17'0 0.0
2018-Dec-06 12:00N 51°53' E 004°17'1 2.1
2018-Dec-06 11:30N 51°53' E 004°19'1 2.2
2018-Dec-06 10:55N 51°53' E 004°21'0 0.0
2018-Dec-06 10:28N 51°53' E 004°21'0 0.0
2018-Dec-06 09:58N 51°53' E 004°21'0 0.0
2018-Dec-06 09:28N 51°53' E 004°21'0 0.0
2018-Dec-06 08:40N 51°53' E 004°21'0 0.0
2018-Dec-06 08:28N 51°53' E 004°21'0 0.0
2018-Dec-06 07:58N 51°53' E 004°21'0 0.0
2018-Dec-06 07:28N 51°53' E 004°21'0 0.0
2018-Dec-06 06:40N 51°53' E 004°21'0 0.0
2018-Dec-06 06:25N 51°53' E 004°21'0 0.0
2018-Dec-06 05:55N 51°53' E 004°21'0 0.0
2018-Dec-06 05:28N 51°53' E 004°21'0 0.0
2018-Dec-06 04:58N 51°53' E 004°21'0 0.0
2018-Dec-06 04:28N 51°53' E 004°21'0 0.0
2018-Dec-06 03:58N 51°53' E 004°21'0 0.0
2018-Dec-06 02:58N 51°53' E 004°21'0 0.0
2018-Dec-06 02:25N 51°53' E 004°21'0 0.0
2018-Dec-06 01:57N 51°53' E 004°21'0 0.0
2018-Dec-06 01:30N 51°53' E 004°21'0 0.0
2018-Dec-06 01:00N 51°53' E 004°21'0 0.0
2018-Dec-06 00:27N 51°53' E 004°21'0 0.0
2018-Dec-05 23:57N 51°53' E 004°21'0 0.0
2018-Dec-05 23:30N 51°53' E 004°21'0 0.0
2018-Dec-05 22:57N 51°53' E 004°21'0 0.0
2018-Dec-05 22:30N 51°53' E 004°21'0 0.0
2018-Dec-05 22:00N 51°53' E 004°21'0 0.0
2018-Dec-05 21:27N 51°53' E 004°21'0 0.0
2018-Dec-05 21:00N 51°53' E 004°21'0 0.0
2018-Dec-05 20:24N 51°53' E 004°21'0 0.0
2018-Dec-05 19:51N 51°53' E 004°21'0 0.0
2018-Dec-05 19:27N 51°53' E 004°21'0 0.0
2018-Dec-05 19:00N 51°53' E 004°21'0 0.0
2018-Dec-05 18:24N 51°53' E 004°21'0 0.0
2018-Dec-05 18:00N 51°53' E 004°21'0 0.0
2018-Dec-05 17:27N 51°53' E 004°21'0 0.0
2018-Dec-05 17:00N 51°53' E 004°21'0 0.0
2018-Dec-05 16:30N 51°53' E 004°21'0 0.0
2018-Dec-05 15:57N 51°53' E 004°21'0 0.0
2018-Dec-05 15:24N 51°53' E 004°21'0 0.0
2018-Dec-05 15:00N 51°53' E 004°21'0 0.0
2018-Dec-05 14:30N 51°53' E 004°21'0 0.0
2018-Dec-05 13:57N 51°53' E 004°21'0 0.0
2018-Dec-05 13:27N 51°53' E 004°21'0 0.0
2018-Dec-05 12:57N 51°53' E 004°21'0 0.0
2018-Dec-05 12:30N 51°53' E 004°21'0 0.0
2018-Dec-05 12:00N 51°53' E 004°21'0 0.0
2018-Dec-05 11:27N 51°53' E 004°21'0 0.0
2018-Dec-05 10:57N 51°53' E 004°21'0 0.0
2018-Dec-05 10:30N 51°53' E 004°21'0 0.0
2018-Dec-05 09:54N 51°53' E 004°21'0 0.0
2018-Dec-05 09:24N 51°53' E 004°21'0 0.0
2018-Dec-05 08:57N 51°53' E 004°21'0 0.0
2018-Dec-05 08:30N 51°53' E 004°21'0 0.0
2018-Dec-05 08:00N 51°53' E 004°21'0 0.0
2018-Dec-05 07:30N 51°53' E 004°21'0 0.0
2018-Dec-05 07:00N 51°53' E 004°21'0 0.0
2018-Dec-05 06:30N 51°53' E 004°21'0 0.0
2018-Dec-05 05:57N 51°53' E 004°21'0 0.0
2018-Dec-05 05:30N 51°53' E 004°21'0 0.0
2018-Dec-05 05:00N 51°53' E 004°21'0 0.0
2018-Dec-05 04:30N 51°53' E 004°21'0 0.0
2018-Dec-05 03:57N 51°53' E 004°21'0 0.0
2018-Dec-05 03:21N 51°53' E 004°21'0 0.0
2018-Dec-05 03:00N 51°53' E 004°21'0 0.0
2018-Dec-05 02:30N 51°53' E 004°21'0 0.0
2018-Dec-05 01:51N 51°53' E 004°21'0 0.0
2018-Dec-05 01:30N 51°53' E 004°21'0 0.0
2018-Dec-05 00:54N 51°53' E 004°21'0 0.0
2018-Dec-05 00:27N 51°53' E 004°21'0 0.0
2018-Dec-04 23:57N 51°53' E 004°21'0 0.0
2018-Dec-04 23:24N 51°53' E 004°21'0 0.0
2018-Dec-04 23:00N 51°53' E 004°21'0 0.0
2018-Dec-04 22:30N 51°53' E 004°21'0 0.0
2018-Dec-04 22:00N 51°53' E 004°21'0 0.0
2018-Dec-04 21:27N 51°53' E 004°21'0 0.0
2018-Dec-04 20:57N 51°53' E 004°21'0 0.0
2018-Dec-04 20:30N 51°53' E 004°21'0 0.0
2018-Dec-04 19:57N 51°53' E 004°21'0 0.0
2018-Dec-04 19:30N 51°53' E 004°21'0 0.0
2018-Dec-04 19:00N 51°53' E 004°21'0 0.0
2018-Dec-04 18:27N 51°53' E 004°21'0 0.0
2018-Dec-04 18:00N 51°53' E 004°21'0 0.0
2018-Dec-04 17:30N 51°53' E 004°21'0 0.0
2018-Dec-04 16:57N 51°53' E 004°21'0 0.0
2018-Dec-04 16:27N 51°53' E 004°21'0 0.0
2018-Dec-04 15:57N 51°53' E 004°21'0 0.0
2018-Dec-04 15:30N 51°53' E 004°21'1 1.5
2018-Dec-04 15:00N 51°54' E 004°19'3 6.6
2018-Dec-04 14:30N 51°55' E 004°14'5 9.1
2018-Dec-04 14:00N 51°58' E 004°09'510.7
2018-Dec-04 13:30N 51°60' E 004°01'611.7
2018-Dec-04 13:00N 52°00' E 003°51'4 8.8
2018-Dec-04 12:30N 51°59' E 003°45'5 9.3
2018-Dec-04 12:00N 51°57' E 003°37'5 9.8
2018-Dec-04 11:30N 51°55' E 003°30'0 0.4
2018-Dec-04 10:56N 51°55' E 003°30'0 0.1
2018-Dec-04 10:20N 51°55' E 003°30'0 0.2
2018-Dec-04 09:59N 51°55' E 003°30'0 0.1
2018-Dec-04 09:29N 51°55' E 003°30'0 0.1
2018-Dec-04 08:41N 51°55' E 003°30'0 0.1
2018-Dec-04 08:23N 51°55' E 003°30'0 0.0
2018-Dec-04 07:59N 51°55' E 003°30'0 0.1
2018-Dec-04 07:26N 51°55' E 003°30'0 0.0
2018-Dec-04 06:53N 51°55' E 003°30'0 0.1
2018-Dec-04 06:26N 51°55' E 003°30'0 0.0
2018-Dec-04 05:38N 51°55' E 003°30'0 0.1
2018-Dec-04 05:26N 51°55' E 003°30'0 0.1
2018-Dec-04 04:59N 51°55' E 003°30'0 0.0
2018-Dec-04 04:29N 51°55' E 003°30'0 0.1
2018-Dec-04 03:56N 51°55' E 003°30'0 0.1
2018-Dec-04 03:26N 51°55' E 003°30'0 0.0
2018-Dec-04 02:53N 51°55' E 003°30'0 0.1
2018-Dec-04 01:59N 51°55' E 003°30'0 0.1
2018-Dec-04 00:44N 51°55' E 003°30'0 0.0
2018-Dec-04 00:26N 51°55' E 003°30'0 0.0
2018-Dec-03 23:59N 51°55' E 003°30'0 0.0
2018-Dec-03 23:20N 51°55' E 003°30'0 0.0
2018-Dec-03 22:53N 51°55' E 003°30'0 0.0
2018-Dec-03 22:08N 51°55' E 003°30'0 0.0
2018-Dec-03 21:53N 51°55' E 003°30'0 0.2
2018-Dec-03 21:29N 51°55' E 003°30'0 0.0
2018-Dec-03 20:59N 51°55' E 003°30'0 0.1
2018-Dec-03 20:26N 51°55' E 003°30'0 0.2
2018-Dec-03 19:59N 51°55' E 003°30'0 0.1
2018-Dec-03 19:20N 51°55' E 003°30'0 0.1
2018-Dec-03 18:53N 51°55' E 003°30'0 0.1
2018-Dec-03 18:23N 51°55' E 003°30'0 0.0
2018-Dec-03 17:53N 51°55' E 003°30'0 0.0
2018-Dec-03 17:29N 51°55' E 003°30'0 0.2
2018-Dec-03 16:56N 51°55' E 003°30'0 0.1
2018-Dec-03 16:29N 51°55' E 003°30'0 0.1
2018-Dec-03 15:41N 51°55' E 003°30'0 0.0
2018-Dec-03 15:11N 51°55' E 003°30'0 0.1
2018-Dec-03 14:59N 51°55' E 003°30'0 0.0
2018-Dec-03 14:17N 51°55' E 003°30'0 0.0
2018-Dec-03 13:50N 51°55' E 003°30'0 0.1
2018-Dec-03 13:29N 51°55' E 003°30'0 0.0
2018-Dec-03 12:56N 51°55' E 003°30'0 0.0
2018-Dec-03 12:29N 51°55' E 003°30'0 0.0
2018-Dec-03 11:53N 51°55' E 003°30'0 0.0
2018-Dec-03 11:29N 51°55' E 003°30'0 0.0
2018-Dec-03 10:41N 51°55' E 003°30'0 0.0
2018-Dec-03 10:11N 51°55' E 003°30'0 0.0
2018-Dec-03 09:59N 51°55' E 003°30'0 0.0
2018-Dec-03 09:02N 51°55' E 003°30'0 0.1
2018-Dec-03 08:53N 51°55' E 003°30'0 0.0
2018-Dec-03 08:20N 51°55' E 003°30'0 0.0
2018-Dec-03 07:56N 51°55' E 003°30'0 0.2
2018-Dec-03 07:08N 51°55' E 003°30'0 0.2
2018-Dec-03 06:59N 51°55' E 003°30'0 0.1
2018-Dec-03 06:05N 51°55' E 003°30'0 0.1
2018-Dec-03 05:59N 51°55' E 003°30'0 0.1
2018-Dec-03 05:23N 51°55' E 003°30'0 0.1
2018-Dec-03 04:29N 51°55' E 003°30'0 0.1
2018-Dec-03 03:47N 51°55' E 003°30'0 0.1
2018-Dec-03 03:23N 51°55' E 003°30'0 0.0
2018-Dec-03 02:53N 51°55' E 003°30'0 0.1
2018-Dec-03 02:29N 51°55' E 003°30'0 0.0
2018-Dec-03 01:59N 51°55' E 003°30'0 0.0
2018-Dec-03 01:20N 51°55' E 003°30'0 0.0
2018-Dec-03 00:53N 51°55' E 003°30'0 0.0
2018-Dec-03 00:20N 51°55' E 003°30'0 0.0
2018-Dec-02 23:41N 51°55' E 003°30'0 0.0
2018-Dec-02 23:26N 51°55' E 003°30'0 0.0
2018-Dec-02 22:53N 51°55' E 003°30'0 0.0
2018-Dec-02 22:29N 51°55' E 003°30'0 0.0
2018-Dec-02 21:50N 51°55' E 003°30'0 0.4
2018-Dec-02 21:30N 51°55' E 003°30'1 1.7
2018-Dec-02 20:59N 51°56' E 003°30'5 9.1
2018-Dec-02 20:29N 51°55' E 003°23'3711.1
2018-Dec-02 17:10N 51°40' E 002°28'211.3
2018-Dec-02 16:59N 51°38' E 002°26'511.2
2018-Dec-02 16:30N 51°34' E 002°21'611.3
2018-Dec-02 16:00N 51°30' E 002°15'611.3
2018-Dec-02 15:30N 51°25' E 002°11'611.6
2018-Dec-02 15:00N 51°19' E 002°08'611.5
2018-Dec-02 14:30N 51°14' E 002°03'612.1
2018-Dec-02 14:00N 51°11' E 001°56'612.4
2018-Dec-02 13:30N 51°08' E 001°47'612.6
2018-Dec-02 13:00N 51°03' E 001°40'612.8
2018-Dec-02 12:30N 50°58' E 001°34'613.0
2018-Dec-02 12:00N 50°53' E 001°27'713.2
2018-Dec-02 11:30N 50°47' E 001°25'612.8
2018-Dec-02 11:00N 50°41' E 001°20'612.8
2018-Dec-02 10:30N 50°37' E 001°13'3612.3
2018-Dec-02 07:37N 50°23' E 000°21'1912.9
2018-Dec-02 06:10N 50°18' W 000°07'413.5
2018-Dec-02 05:54N 50°17' W 000°12'2914.4
2018-Dec-02 03:53N 50°09' W 000°56'615.1
2018-Dec-02 03:30N 50°08' W 001°05'815.3
2018-Dec-02 03:00N 50°06' W 001°16'815.3
2018-Dec-02 02:31N 50°03' W 001°27'715.0
2018-Dec-02 02:00N 50°02' W 001°39'714.6
2018-Dec-02 01:30N 50°00' W 001°50'714.1
2018-Dec-02 01:00N 49°59' W 002°01'713.4
2018-Dec-02 00:30N 49°57' W 002°11'  
Track history (hours):
 
Tides and Currents Weather Stations Pressure Air Temp Water Temp Dewpoint Dewpoint Depression Visibility Wind Speed Wind Dir Waves Ship Positions

Discovery

Operator: V Ships Leisure SAM

Last reported at 2018-Dec-12 00:27 UTC. Time now 2018-Dec-12 15:21 UTC.
Position N 53°26' E 003°11'.

Length 177 m; draft 10.2 m.

Type: Cargo ship. MMSI: 353389000.

Date/timePositionNaut miles runAvg speedWind from/ knotsBaromVisibWave heightAir tempDewpointWater temp
2018-Dec-12 00:27N 53°26' E 003°11'1 0.5
2018-Dec-11 22:33N 53°26' E 003°12'6 3.8
2018-Dec-11 20:55N 53°21' E 003°18'29 1.4
2018-Dec-11 00:11N 52°52' E 003°20'1 1.1
2018-Dec-10 23:05N 52°51' E 003°21'0 1.2
2018-Dec-10 22:50N 52°51' E 003°21'1 1.4
2018-Dec-10 22:06N 52°50' E 003°23'0 1.2
2018-Dec-10 21:43N 52°50' E 003°23'0 0.9
2018-Dec-10 21:24N 52°50' E 003°23'1 0.9
2018-Dec-10 20:44N 52°49' E 003°24'  
2018-Dec-08 15:38N 52°21' E 003°09'8 8.6
2018-Dec-08 14:45N 52°16' E 003°18'4 8.2
2018-Dec-08 14:15N 52°13' E 003°23'2 7.8
2018-Dec-08 13:59N 52°12' E 003°25'3 6.3
2018-Dec-08 13:30N 52°10' E 003°29'3 5.8
2018-Dec-08 12:59N 52°08' E 003°33'3 5.8
2018-Dec-08 12:29N 52°07' E 003°37'3 5.3
2018-Dec-08 12:00N 52°06' E 003°41'3 5.8
2018-Dec-08 11:30N 52°05' E 003°45'3 5.9
2018-Dec-08 11:00N 52°04' E 003°50'3 5.2
2018-Dec-08 10:30N 52°04' E 003°54'1 2.9
2018-Dec-08 10:00N 52°03' E 003°56'2 3.6
2018-Dec-08 09:30N 52°02' E 003°58'4 8.4
2018-Dec-08 09:00N 51°59' E 004°04'5 9.6
2018-Dec-08 08:30N 51°57' E 004°11'510.0
2018-Dec-08 08:00N 51°54' E 004°17'1 1.9
2018-Dec-08 07:30N 51°53' E 004°17'0 0.3
2018-Dec-08 06:49N 51°53' E 004°17'0 0.0
2018-Dec-08 06:28N 51°53' E 004°17'0 0.0
2018-Dec-08 05:52N 51°53' E 004°17'0 0.0
2018-Dec-08 05:28N 51°53' E 004°17'0 0.0
2018-Dec-08 04:55N 51°53' E 004°17'0 0.0
2018-Dec-08 04:25N 51°53' E 004°17'0 0.0
2018-Dec-08 03:57N 51°53' E 004°17'0 0.0
2018-Dec-08 03:27N 51°53' E 004°17'0 0.0
2018-Dec-08 02:54N 51°53' E 004°17'0 0.0
2018-Dec-08 02:30N 51°53' E 004°17'0 0.0
2018-Dec-08 02:00N 51°53' E 004°17'0 0.0
2018-Dec-08 01:30N 51°53' E 004°17'0 0.0
2018-Dec-08 00:33N 51°53' E 004°17'0 0.0
2018-Dec-08 00:12N 51°53' E 004°17'0 0.0
2018-Dec-07 23:57N 51°53' E 004°17'0 0.0
2018-Dec-07 23:30N 51°53' E 004°17'0 0.0
2018-Dec-07 23:00N 51°53' E 004°17'0 0.0
2018-Dec-07 22:24N 51°53' E 004°17'0 0.0
2018-Dec-07 21:51N 51°53' E 004°17'0 0.0
2018-Dec-07 21:30N 51°53' E 004°17'0 0.0
2018-Dec-07 21:00N 51°53' E 004°17'0 0.0
2018-Dec-07 20:24N 51°53' E 004°17'0 0.0
2018-Dec-07 19:45N 51°53' E 004°17'0 0.0
2018-Dec-07 19:24N 51°53' E 004°17'0 0.0
2018-Dec-07 18:45N 51°53' E 004°17'0 0.0
2018-Dec-07 18:21N 51°53' E 004°17'0 0.0
2018-Dec-07 17:54N 51°53' E 004°17'0 0.0
2018-Dec-07 17:27N 51°53' E 004°17'0 0.0
2018-Dec-07 17:00N 51°53' E 004°17'0 0.0
2018-Dec-07 16:30N 51°53' E 004°17'0 0.0
2018-Dec-07 16:00N 51°53' E 004°17'0 0.0
2018-Dec-07 15:30N 51°53' E 004°17'0 0.0
2018-Dec-07 14:48N 51°53' E 004°17'0 0.0
2018-Dec-07 14:21N 51°53' E 004°17'0 0.0
2018-Dec-07 13:42N 51°53' E 004°17'0 0.0
2018-Dec-07 13:18N 51°53' E 004°17'0 0.0
2018-Dec-07 13:00N 51°53' E 004°17'0 0.0
2018-Dec-07 12:17N 51°53' E 004°17'0 0.0
2018-Dec-07 11:38N 51°53' E 004°17'0 0.0
2018-Dec-07 11:20N 51°53' E 004°17'0 0.0
2018-Dec-07 10:56N 51°53' E 004°17'0 0.0
2018-Dec-07 10:17N 51°53' E 004°17'0 0.0
2018-Dec-07 09:41N 51°53' E 004°17'0 0.0
2018-Dec-07 09:29N 51°53' E 004°17'0 0.0
2018-Dec-07 08:41N 51°53' E 004°17'0 0.0
2018-Dec-07 07:47N 51°53' E 004°17'0 0.0
2018-Dec-07 07:29N 51°53' E 004°17'0 0.0
2018-Dec-07 06:29N 51°53' E 004°17'0 0.0
2018-Dec-07 05:56N 51°53' E 004°17'0 0.0
2018-Dec-07 05:14N 51°53' E 004°17'0 0.0
2018-Dec-07 04:59N 51°53' E 004°17'0 0.0
2018-Dec-07 04:23N 51°53' E 004°17'0 0.0
2018-Dec-07 03:50N 51°53' E 004°17'0 0.0
2018-Dec-07 03:17N 51°53' E 004°17'0 0.0
2018-Dec-07 02:29N 51°53' E 004°17'0 0.0
2018-Dec-07 01:47N 51°53' E 004°17'0 0.0
2018-Dec-07 01:20N 51°53' E 004°17'0 0.0
2018-Dec-07 00:59N 51°53' E 004°17'0 0.0
2018-Dec-07 00:26N 51°53' E 004°17'0 0.0
2018-Dec-06 23:56N 51°53' E 004°17'0 0.0
2018-Dec-06 23:29N 51°53' E 004°17'0 0.0
2018-Dec-06 22:56N 51°53' E 004°17'0 0.0
2018-Dec-06 22:29N 51°53' E 004°17'0 0.0
2018-Dec-06 21:50N 51°53' E 004°17'0 0.0
2018-Dec-06 21:29N 51°53' E 004°17'0 0.0
2018-Dec-06 20:59N 51°53' E 004°17'0 0.0
2018-Dec-06 20:23N 51°53' E 004°17'0 0.0
2018-Dec-06 19:59N 51°53' E 004°17'0 0.0
2018-Dec-06 19:11N 51°53' E 004°17'0 0.0
2018-Dec-06 18:59N 51°53' E 004°17'0 0.0
2018-Dec-06 18:08N 51°53' E 004°17'0 0.0
2018-Dec-06 17:50N 51°53' E 004°17'0 0.0
2018-Dec-06 17:29N 51°53' E 004°17'0 0.0
2018-Dec-06 16:59N 51°53' E 004°17'0 0.0
2018-Dec-06 16:26N 51°53' E 004°17'0 0.0
2018-Dec-06 15:44N 51°53' E 004°17'0 0.0
2018-Dec-06 15:29N 51°53' E 004°17'0 0.0
2018-Dec-06 14:17N 51°53' E 004°17'0 0.0
2018-Dec-06 13:59N 51°53' E 004°17'0 0.0
2018-Dec-06 13:23N 51°53' E 004°17'0 0.0
2018-Dec-06 12:59N 51°53' E 004°17'0 0.0
2018-Dec-06 12:20N 51°53' E 004°17'0 0.0
2018-Dec-06 12:00N 51°53' E 004°17'1 2.1
2018-Dec-06 11:30N 51°53' E 004°19'1 2.2
2018-Dec-06 10:55N 51°53' E 004°21'0 0.0
2018-Dec-06 10:28N 51°53' E 004°21'0 0.0
2018-Dec-06 09:58N 51°53' E 004°21'0 0.0
2018-Dec-06 09:28N 51°53' E 004°21'0 0.0
2018-Dec-06 08:40N 51°53' E 004°21'0 0.0
2018-Dec-06 08:28N 51°53' E 004°21'0 0.0
2018-Dec-06 07:58N 51°53' E 004°21'0 0.0
2018-Dec-06 07:28N 51°53' E 004°21'0 0.0
2018-Dec-06 06:40N 51°53' E 004°21'0 0.0
2018-Dec-06 06:25N 51°53' E 004°21'0 0.0
2018-Dec-06 05:55N 51°53' E 004°21'0 0.0
2018-Dec-06 05:28N 51°53' E 004°21'0 0.0
2018-Dec-06 04:58N 51°53' E 004°21'0 0.0
2018-Dec-06 04:28N 51°53' E 004°21'0 0.0
2018-Dec-06 03:58N 51°53' E 004°21'0 0.0
2018-Dec-06 02:58N 51°53' E 004°21'0 0.0
2018-Dec-06 02:25N 51°53' E 004°21'0 0.0
2018-Dec-06 01:57N 51°53' E 004°21'0 0.0
2018-Dec-06 01:30N 51°53' E 004°21'0 0.0
2018-Dec-06 01:00N 51°53' E 004°21'0 0.0
2018-Dec-06 00:27N 51°53' E 004°21'0 0.0
2018-Dec-05 23:57N 51°53' E 004°21'0 0.0
2018-Dec-05 23:30N 51°53' E 004°21'0 0.0
2018-Dec-05 22:57N 51°53' E 004°21'0 0.0
2018-Dec-05 22:30N 51°53' E 004°21'0 0.0
2018-Dec-05 22:00N 51°53' E 004°21'0 0.0
2018-Dec-05 21:27N 51°53' E 004°21'0 0.0
2018-Dec-05 21:00N 51°53' E 004°21'0 0.0
2018-Dec-05 20:24N 51°53' E 004°21'0 0.0
2018-Dec-05 19:51N 51°53' E 004°21'0 0.0
2018-Dec-05 19:27N 51°53' E 004°21'0 0.0
2018-Dec-05 19:00N 51°53' E 004°21'0 0.0
2018-Dec-05 18:24N 51°53' E 004°21'0 0.0
2018-Dec-05 18:00N 51°53' E 004°21'0 0.0
2018-Dec-05 17:27N 51°53' E 004°21'0 0.0
2018-Dec-05 17:00N 51°53' E 004°21'0 0.0
2018-Dec-05 16:30N 51°53' E 004°21'0 0.0
2018-Dec-05 15:57N 51°53' E 004°21'0 0.0
2018-Dec-05 15:24N 51°53' E 004°21'0 0.0
2018-Dec-05 15:00N 51°53' E 004°21'0 0.0
2018-Dec-05 14:30N 51°53' E 004°21'0 0.0
2018-Dec-05 13:57N 51°53' E 004°21'0 0.0
2018-Dec-05 13:27N 51°53' E 004°21'0 0.0
2018-Dec-05 12:57N 51°53' E 004°21'0 0.0
2018-Dec-05 12:30N 51°53' E 004°21'0 0.0
2018-Dec-05 12:00N 51°53' E 004°21'0 0.0
2018-Dec-05 11:27N 51°53' E 004°21'0 0.0
2018-Dec-05 10:57N 51°53' E 004°21'0 0.0
2018-Dec-05 10:30N 51°53' E 004°21'0 0.0
2018-Dec-05 09:54N 51°53' E 004°21'0 0.0
2018-Dec-05 09:24N 51°53' E 004°21'0 0.0
2018-Dec-05 08:57N 51°53' E 004°21'0 0.0
2018-Dec-05 08:30N 51°53' E 004°21'0 0.0
2018-Dec-05 08:00N 51°53' E 004°21'0 0.0
2018-Dec-05 07:30N 51°53' E 004°21'0 0.0
2018-Dec-05 07:00N 51°53' E 004°21'0 0.0
2018-Dec-05 06:30N 51°53' E 004°21'0 0.0
2018-Dec-05 05:57N 51°53' E 004°21'0 0.0
2018-Dec-05 05:30N 51°53' E 004°21'0 0.0
2018-Dec-05 05:00N 51°53' E 004°21'0 0.0
2018-Dec-05 04:30N 51°53' E 004°21'0 0.0
2018-Dec-05 03:57N 51°53' E 004°21'0 0.0
2018-Dec-05 03:21N 51°53' E 004°21'0 0.0
2018-Dec-05 03:00N 51°53' E 004°21'0 0.0
2018-Dec-05 02:30N 51°53' E 004°21'0 0.0
2018-Dec-05 01:51N 51°53' E 004°21'0 0.0
2018-Dec-05 01:30N 51°53' E 004°21'0 0.0
2018-Dec-05 00:54N 51°53' E 004°21'0 0.0
2018-Dec-05 00:27N 51°53' E 004°21'0 0.0
2018-Dec-04 23:57N 51°53' E 004°21'0 0.0
2018-Dec-04 23:24N 51°53' E 004°21'0 0.0
2018-Dec-04 23:00N 51°53' E 004°21'0 0.0
2018-Dec-04 22:30N 51°53' E 004°21'0 0.0
2018-Dec-04 22:00N 51°53' E 004°21'0 0.0
2018-Dec-04 21:27N 51°53' E 004°21'0 0.0
2018-Dec-04 20:57N 51°53' E 004°21'0 0.0
2018-Dec-04 20:30N 51°53' E 004°21'0 0.0
2018-Dec-04 19:57N 51°53' E 004°21'0 0.0
2018-Dec-04 19:30N 51°53' E 004°21'0 0.0
2018-Dec-04 19:00N 51°53' E 004°21'0 0.0
2018-Dec-04 18:27N 51°53' E 004°21'0 0.0
2018-Dec-04 18:00N 51°53' E 004°21'0 0.0
2018-Dec-04 17:30N 51°53' E 004°21'0 0.0
2018-Dec-04 16:57N 51°53' E 004°21'0 0.0
2018-Dec-04 16:27N 51°53' E 004°21'0 0.0
2018-Dec-04 15:57N 51°53' E 004°21'0 0.0
2018-Dec-04 15:30N 51°53' E 004°21'1 1.5
2018-Dec-04 15:00N 51°54' E 004°19'3 6.6
2018-Dec-04 14:30N 51°55' E 004°14'5 9.1
2018-Dec-04 14:00N 51°58' E 004°09'510.7
2018-Dec-04 13:30N 51°60' E 004°01'611.7
2018-Dec-04 13:00N 52°00' E 003°51'4 8.8
2018-Dec-04 12:30N 51°59' E 003°45'5 9.3
2018-Dec-04 12:00N 51°57' E 003°37'5 9.8
2018-Dec-04 11:30N 51°55' E 003°30'0 0.4
2018-Dec-04 10:56N 51°55' E 003°30'0 0.1
2018-Dec-04 10:20N 51°55' E 003°30'0 0.2
2018-Dec-04 09:59N 51°55' E 003°30'0 0.1
2018-Dec-04 09:29N 51°55' E 003°30'0 0.1
2018-Dec-04 08:41N 51°55' E 003°30'0 0.1
2018-Dec-04 08:23N 51°55' E 003°30'0 0.0
2018-Dec-04 07:59N 51°55' E 003°30'0 0.1
2018-Dec-04 07:26N 51°55' E 003°30'0 0.0
2018-Dec-04 06:53N 51°55' E 003°30'0 0.1
2018-Dec-04 06:26N 51°55' E 003°30'0 0.0
2018-Dec-04 05:38N 51°55' E 003°30'0 0.1
2018-Dec-04 05:26N 51°55' E 003°30'0 0.1
2018-Dec-04 04:59N 51°55' E 003°30'0 0.0
2018-Dec-04 04:29N 51°55' E 003°30'0 0.1
2018-Dec-04 03:56N 51°55' E 003°30'0 0.1
2018-Dec-04 03:26N 51°55' E 003°30'0 0.0
2018-Dec-04 02:53N 51°55' E 003°30'0 0.1
2018-Dec-04 01:59N 51°55' E 003°30'0 0.1
2018-Dec-04 00:44N 51°55' E 003°30'0 0.0
2018-Dec-04 00:26N 51°55' E 003°30'0 0.0
2018-Dec-03 23:59N 51°55' E 003°30'0 0.0
2018-Dec-03 23:20N 51°55' E 003°30'0 0.0
2018-Dec-03 22:53N 51°55' E 003°30'0 0.0
2018-Dec-03 22:08N 51°55' E 003°30'0 0.0
2018-Dec-03 21:53N 51°55' E 003°30'0 0.2
2018-Dec-03 21:29N 51°55' E 003°30'0 0.0
2018-Dec-03 20:59N 51°55' E 003°30'0 0.1
2018-Dec-03 20:26N 51°55' E 003°30'0 0.2
2018-Dec-03 19:59N 51°55' E 003°30'0 0.1
2018-Dec-03 19:20N 51°55' E 003°30'0 0.1
2018-Dec-03 18:53N 51°55' E 003°30'0 0.1
2018-Dec-03 18:23N 51°55' E 003°30'0 0.0
2018-Dec-03 17:53N 51°55' E 003°30'0 0.0
2018-Dec-03 17:29N 51°55' E 003°30'0 0.2
2018-Dec-03 16:56N 51°55' E 003°30'0 0.1
2018-Dec-03 16:29N 51°55' E 003°30'0 0.1
2018-Dec-03 15:41N 51°55' E 003°30'0 0.0
2018-Dec-03 15:11N 51°55' E 003°30'0 0.1
2018-Dec-03 14:59N 51°55' E 003°30'0 0.0
2018-Dec-03 14:17N 51°55' E 003°30'0 0.0
2018-Dec-03 13:50N 51°55' E 003°30'0 0.1
2018-Dec-03 13:29N 51°55' E 003°30'0 0.0
2018-Dec-03 12:56N 51°55' E 003°30'0 0.0
2018-Dec-03 12:29N 51°55' E 003°30'0 0.0
2018-Dec-03 11:53N 51°55' E 003°30'0 0.0
2018-Dec-03 11:29N 51°55' E 003°30'0 0.0
2018-Dec-03 10:41N 51°55' E 003°30'0 0.0
2018-Dec-03 10:11N 51°55' E 003°30'0 0.0
2018-Dec-03 09:59N 51°55' E 003°30'0 0.0
2018-Dec-03 09:02N 51°55' E 003°30'0 0.1
2018-Dec-03 08:53N 51°55' E 003°30'0 0.0
2018-Dec-03 08:20N 51°55' E 003°30'0 0.0
2018-Dec-03 07:56N 51°55' E 003°30'0 0.2
2018-Dec-03 07:08N 51°55' E 003°30'0 0.2
2018-Dec-03 06:59N 51°55' E 003°30'0 0.1
2018-Dec-03 06:05N 51°55' E 003°30'0 0.1
2018-Dec-03 05:59N 51°55' E 003°30'0 0.1
2018-Dec-03 05:23N 51°55' E 003°30'0 0.1
2018-Dec-03 04:29N 51°55' E 003°30'0 0.1
2018-Dec-03 03:47N 51°55' E 003°30'0 0.1
2018-Dec-03 03:23N 51°55' E 003°30'0 0.0
2018-Dec-03 02:53N 51°55' E 003°30'0 0.1
2018-Dec-03 02:29N 51°55' E 003°30'0 0.0
2018-Dec-03 01:59N 51°55' E 003°30'0 0.0
2018-Dec-03 01:20N 51°55' E 003°30'0 0.0
2018-Dec-03 00:53N 51°55' E 003°30'0 0.0
2018-Dec-03 00:20N 51°55' E 003°30'0 0.0
2018-Dec-02 23:41N 51°55' E 003°30'0 0.0
2018-Dec-02 23:26N 51°55' E 003°30'0 0.0
2018-Dec-02 22:53N 51°55' E 003°30'0 0.0
2018-Dec-02 22:29N 51°55' E 003°30'0 0.0
2018-Dec-02 21:50N 51°55' E 003°30'0 0.4
2018-Dec-02 21:30N 51°55' E 003°30'1 1.7
2018-Dec-02 20:59N 51°56' E 003°30'5 9.1
2018-Dec-02 20:29N 51°55' E 003°23'3711.1
2018-Dec-02 17:10N 51°40' E 002°28'211.3
2018-Dec-02 16:59N 51°38' E 002°26'511.2
2018-Dec-02 16:30N 51°34' E 002°21'611.3
2018-Dec-02 16:00N 51°30' E 002°15'611.3
2018-Dec-02 15:30N 51°25' E 002°11'611.6
2018-Dec-02 15:00N 51°19' E 002°08'611.5
2018-Dec-02 14:30N 51°14' E 002°03'612.1
2018-Dec-02 14:00N 51°11' E 001°56'612.4
2018-Dec-02 13:30N 51°08' E 001°47'612.6
2018-Dec-02 13:00N 51°03' E 001°40'612.8
2018-Dec-02 12:30N 50°58' E 001°34'613.0
2018-Dec-02 12:00N 50°53' E 001°27'713.2
2018-Dec-02 11:30N 50°47' E 001°25'612.8
2018-Dec-02 11:00N 50°41' E 001°20'612.8
2018-Dec-02 10:30N 50°37' E 001°13'3612.3
2018-Dec-02 07:37N 50°23' E 000°21'1912.9
2018-Dec-02 06:10N 50°18' W 000°07'413.5
2018-Dec-02 05:54N 50°17' W 000°12'2914.4
2018-Dec-02 03:53N 50°09' W 000°56'615.1
2018-Dec-02 03:30N 50°08' W 001°05'815.3
2018-Dec-02 03:00N 50°06' W 001°16'815.3
2018-Dec-02 02:31N 50°03' W 001°27'715.0
2018-Dec-02 02:00N 50°02' W 001°39'714.6
2018-Dec-02 01:30N 50°00' W 001°50'714.1
2018-Dec-02 01:00N 49°59' W 002°01'713.4
2018-Dec-02 00:30N 49°57' W 002°11'  

Dump ship's entire track history